Terminal Aerodrome Forecast
Issued by NWS

Home | Current Version | Previous Version | Text Only | Print | Product List | Glossary Off
Versions: 1 2 3 4 5 6 7 8 9 10 11 12 13 14 15 16

820
FTUS43 KBIS 211122
TAFMOT
TAF
KMOT 211122Z 2112/2212 16010KT P6SM VCSH BKN100
     FM211400 19011G19KT P6SM FEW100 SCT200
     FM211600 24013G21KT P6SM FEW070 SCT200
     FM212000 30017G25KT P6SM FEW070 FEW250
     FM220300 28005KT P6SM FEW250=

USA.gov is the U.S. government's official web portal to all federal, state and local government web resources and services.